x

Bay Of Campeche - 214 Nm Ne Of Veracruz, Mx (42055) Wave Buoy

12:50am - Tue 29th Jul 2014 All times are UTC.

  • Sig Wave height 2.3ft
  • Swell Direction
  • Peak Period 5s
  • Average Period 4s
  • Wind
    7mph, 9mph gusts
  • Sea Temp 86°f
  • Air Temp 85°f
  • Sea Pressure 1016.8mb

More Historic Weather Station data

Upgrade to MSW Pro to gain access to the past 30 days of data for over 8000 Wavebouys and Weather Stations around the globe.

Join Pro

Comparision Forecast

View Surf forecast
   
Tue 07/29 12:50am 2.5ft 5s 4s 7 9 mph 1016.8mb 86f 85f
Mon 07/28 11:50pm 2.5ft 5s 4s 9 11 mph 1017mb 86f 85f
10:50pm 2.5ft 6s 4s 7 9 mph 1017.3mb 86f 85f
9:50pm 3ft 5s 4s 7 9 mph 1017.3mb 86f 85f
8:50pm 2.5ft 5s 4s 9 11 mph 1017.1mb 86f 85f
7:50pm 3ft 5s 4s 11 13 mph 1017.7mb 86f 85f
6:50pm 3ft 5s 4s 13 16 mph 1018.2mb 86f 85f
5:50pm 3ft 5s 4s 13 16 mph 1018.7mb 86f 85f
4:50pm 3ft 5s 4s 16 20 mph 1019mb 85f 85f
3:50pm 2.5ft 5s 4s 13 18 mph 1018.9mb 85f 85f
2:50pm 2.5ft 5s 4s 13 16 mph 1018.4mb 85f 85f
1:50pm 2.5ft 5s 4s 13 16 mph 1017.8mb 85f 85f
12:50pm 2.5ft 5s 4s 13 16 mph 1017.4mb 85f 85f
11:50am 2.5ft 4s 4s 13 16 mph 1017mb 85f 85f
10:50am 2.5ft 4s 4s 13 16 mph 1016.6mb 85f 84f
9:50am 2.5ft 4s 4s 13 16 mph 1016.3mb 85f 84f
8:50am 2.5ft 5s 4s 13 16 mph 1016.4mb 85f 84f
7:50am 2.5ft 5s 4s 13 16 mph 1016.6mb 85f 84f
6:50am 2.5ft 5s 4s 11 13 mph 1017.1mb 85f 84f
5:50am 2.5ft 5s 4s 11 13 mph 1017.6mb 85f 84f
4:50am 2.5ft 5s 4s 13 16 mph 1017.9mb 85f 84f
3:50am 2.5ft 5s 4s 11 13 mph 1017.9mb 85f 84f
2:50am 2.5ft 6s 4s 11 16 mph 1017.3mb 85f 84f
1:50am 2.5ft 5s 4s 11 13 mph 1016.8mb 86f 85f
12:50am 2.5ft 6s 4s 11 13 mph 1016.4mb 86f 85f
Sun 07/27 11:50pm 2.5ft 6s 4s 11 13 mph 1016.1mb 86f 85f
10:50pm 3ft 5s 4s 9 11 mph 1016.3mb 86f 85f
9:50pm 3.5ft 6s 4s 11 13 mph 1016.4mb 86f 85f
8:50pm 3.5ft 5s 4s 11 13 mph 1016.7mb 86f 85f
7:50pm 3.5ft 6s 4s 13 16 mph 1016.9mb 86f 85f
6:50pm 3.5ft 6s 4s 13 16 mph 1017mb 85f 85f
5:50pm 3.5ft 5s 4s 16 18 mph 1017.5mb 85f 85f
4:50pm 3.5ft 5s 4s 18 20 mph 1017.3mb 85f 85f
3:50pm 3.5ft 5s 4s 20 22 mph 1017.4mb 85f 85f
2:50pm 3.5ft 5s 4s 18 22 mph 1017.3mb 85f 85f
1:50pm 3.5ft 5s 4s 18 22 mph 1017mb 85f 85f
12:50pm 3ft 5s 4s 16 20 mph 1016.5mb 85f 85f
11:50am 3.5ft 5s 4s 13 18 mph 1016.1mb 85f 84f
10:50am 3ft 5s 4s 18 20 mph 1015.9mb 85f 85f
9:50am 2.5ft 5s 4s 16 18 mph 1015.7mb 85f 85f
8:50am 2.5ft 5s 4s 16 18 mph 1016.1mb 85f 84f
7:50am 2.5ft 6s 4s 16 18 mph 1016.5mb 85f 84f
6:50am 2.5ft 5s 4s 13 16 mph 1016.8mb 85f 85f
5:50am 2.5ft 5s 4s 13 16 mph 1017.1mb 85f 84f
4:50am 2.5ft 6s 4s 13 16 mph 1016.9mb 85f 84f
3:50am 2.5ft 5s 4s 13 16 mph 1017mb 85f 84f
2:50am 2.5ft 5s 4s 13 16 mph 1016.4mb 85f 84f
1:50am 2.5ft 5s 4s 11 13 mph 1016.1mb 86f 84f
12:50am 2.5ft 6s 4s 11 13 mph 1015.6mb 86f 85f
Sat 07/26 11:50pm 3ft 5s 4s 11 13 mph 1015.6mb 86f 85f
10:50pm 3ft 5s 4s 11 13 mph 1015.8mb 86f 85f
9:50pm 3.5ft 6s 4s 13 16 mph 1015.8mb 86f 85f
8:50pm 3.5ft 6s 4s 13 16 mph 1016.2mb 86f 85f
7:50pm 3.5ft 5s 4s 13 16 mph 1016.8mb 86f 85f
6:50pm 3ft 5s 4s 16 18 mph 1017.1mb 86f 85f
5:50pm 3ft 5s 4s 13 18 mph 1017.4mb 86f 85f
4:50pm 3ft 5s 4s 13 16 mph 1017.4mb 85f 85f
3:50pm 3ft 5s 4s 16 18 mph 1017.5mb 85f 85f
2:50pm 3ft 5s 4s 16 18 mph 1017.2mb 85f 85f
1:50pm 3ft 5s 4s 13 16 mph 1016.7mb 85f 85f
12:50pm 3ft 5s 4s 13 16 mph 1016.2mb 85f 85f
11:50am 2.5ft 4s 4s 16 18 mph 1015.9mb 85f 84f
10:50am 2.5ft 4s 4s 13 16 mph 1015.4mb 85f 84f
9:50am 2ft 3s 4s 16 20 mph 1015.3mb 85f 84f
8:50am 1.6ft 4s 3s 16 18 mph 1015.5mb 85f 84f
7:50am 1.6ft 5s 4s 13 16 mph 1016mb 85f 84f
6:50am 1.6ft 4s 4s 11 13 mph 1016.6mb 85f 84f
5:50am 1.6ft 5s 4s 11 13 mph 1017.1mb 85f 84f
4:50am 1.6ft 5s 4s 11 13 mph 1017.4mb 85f 84f
3:50am 2ft 5s 4s 11 13 mph 1017mb 86f 84f
2:50am 1.6ft 5s 4s 11
mph
1016.3mb 86f 84f
1:50am 2ft 5s 4s 11 13 mph 1015.7mb 86f 84f
12:50am 2.5ft 5s 4s 9 11 mph 1014.9mb 86f 84f
Fri 07/25 11:50pm 2.5ft 5s 4s 9 11 mph 1014.6mb 86f 85f
10:50pm 2.5ft 5s 4s 7 9 mph 1014.9mb 86f 85f
9:50pm 2.5ft 5s 4s 9 11 mph 1015.3mb 86f 85f
8:50pm 2.5ft 5s 4s 11 13 mph 1015.6mb 86f 84f
7:50pm 2.5ft 5s 4s 13 16 mph 1016mb 85f 85f
6:50pm 2.5ft 5s 4s 13 16 mph 1016.4mb 85f 85f
5:50pm 2.5ft 5s 4s 16 18 mph 1016.8mb 85f 85f
4:50pm 2ft 4s 4s 16 18 mph 1016.9mb 85f 85f
3:50pm 2ft 4s 3s 13 16 mph 1016.9mb 85f 85f
2:50pm 2ft 4s 4s 13 16 mph 1016.9mb 85f 85f
1:50pm 2ft 4s 3s 16 18 mph 1016.3mb 85f 85f
12:50pm 1.6ft 4s 3s 13 16 mph 1015.8mb 85f 84f
11:50am 1.6ft 3s 3s 13 16 mph 1015.5mb 85f 84f
10:50am 1.6ft 4s 3s 13 16 mph 1015.2mb 85f 84f
9:50am 1.3ft 4s 3s 13 16 mph 1015.3mb 85f 84f
8:50am 1.3ft 5s 4s 13 16 mph 1015.5mb 85f 84f
7:50am 1.3ft 5s 4s 11 13 mph 1015.7mb 85f 84f
6:50am 1.6ft 5s 4s 9 11 mph 1016.1mb 85f 84f
5:50am 1.6ft 5s 4s 9 11 mph 1016.5mb 85f 84f
4:50am 1.6ft 5s 4s 7 9 mph 1016.8mb 86f 84f
3:50am 1.6ft 5s 4s 7 9 mph 1016.6mb 86f 84f
2:50am 1.6ft 5s 4s 9 11 mph 1016mb 86f 85f